createdAt,value
2018-07-05T00:00:24.825Z,4.20
2018-07-05T00:01:24.882Z,3.90
2018-07-05T00:02:24.943Z,4.60
2018-07-05T00:03:25.002Z,4.70
2018-07-05T00:04:25.064Z,4.40
2018-07-05T00:05:25.125Z,4.80
2018-07-05T00:06:25.434Z,5.00
2018-07-05T00:07:25.245Z,4.80
2018-07-05T00:08:25.306Z,4.30
2018-07-05T00:09:25.366Z,3.80
2018-07-05T00:10:25.433Z,3.80
2018-07-05T00:11:25.488Z,3.50
2018-07-05T00:12:25.553Z,3.90
2018-07-05T00:13:25.610Z,3.60
2018-07-05T00:14:25.670Z,3.50
2018-07-05T00:15:25.729Z,4.10
2018-07-05T00:16:25.791Z,4.30
2018-07-05T00:17:25.853Z,4.00
2018-07-05T00:18:25.912Z,4.20
2018-07-05T00:19:25.975Z,3.90
2018-07-05T00:20:26.034Z,4.10
2018-07-05T00:21:26.094Z,3.50
2018-07-05T00:22:26.158Z,4.00
2018-07-05T00:23:26.214Z,3.90
2018-07-05T00:24:26.281Z,4.00
2018-07-05T00:25:26.336Z,3.90
2018-07-05T00:26:26.396Z,4.00
2018-07-05T00:27:26.457Z,3.70
2018-07-05T00:28:26.517Z,3.90
2018-07-05T00:29:26.590Z,4.30
2018-07-05T00:30:26.638Z,3.70
2018-07-05T00:31:26.700Z,3.90
2018-07-05T00:32:26.759Z,4.20
2018-07-05T00:33:26.821Z,4.00
2018-07-05T00:34:26.881Z,3.90
2018-07-05T00:35:26.940Z,3.50
2018-07-05T00:36:27.001Z,3.50
2018-07-05T00:37:27.062Z,4.10
2018-07-05T00:38:27.123Z,4.00
2018-07-05T00:39:27.183Z,3.70
2018-07-05T00:40:27.243Z,3.80
2018-07-05T00:41:27.306Z,3.80
2018-07-05T00:42:27.365Z,3.90
2018-07-05T00:43:27.424Z,3.80
2018-07-05T00:44:27.485Z,3.90
2018-07-05T00:45:27.545Z,3.90
2018-07-05T00:46:27.605Z,4.10
2018-07-05T00:47:27.665Z,4.10
2018-07-05T00:48:27.726Z,3.90
2018-07-05T00:49:27.787Z,4.00
2018-07-05T00:50:27.846Z,3.90
2018-07-05T00:51:27.908Z,3.90
2018-07-05T00:52:27.967Z,4.20
2018-07-05T00:53:28.028Z,4.40
2018-07-05T00:54:28.088Z,5.00
2018-07-05T00:55:28.148Z,4.20
2018-07-05T00:56:28.209Z,4.20
2018-07-05T00:57:28.269Z,3.90
2018-07-05T00:58:28.328Z,4.10
2018-07-05T00:59:28.390Z,3.90
2018-07-05T01:00:28.449Z,3.40
2018-07-05T01:01:28.510Z,3.90
2018-07-05T01:02:28.569Z,3.60
2018-07-05T01:03:28.630Z,3.70
2018-07-05T01:04:28.691Z,4.10
2018-07-05T01:05:28.752Z,3.60
2018-07-05T01:06:28.811Z,4.00
2018-07-05T01:07:28.872Z,3.80
2018-07-05T01:08:28.932Z,3.50
2018-07-05T01:09:28.992Z,4.20
2018-07-05T01:10:29.051Z,4.20
2018-07-05T01:11:29.111Z,4.00
2018-07-05T01:12:29.176Z,3.90
2018-07-05T01:13:29.233Z,4.30
2018-07-05T01:14:29.295Z,3.90
2018-07-05T01:15:29.355Z,3.90
2018-07-05T01:16:29.413Z,3.80
2018-07-05T01:17:29.474Z,3.90
2018-07-05T01:18:29.534Z,3.90
2018-07-05T01:19:29.594Z,3.90
2018-07-05T01:20:29.654Z,3.90
2018-07-05T01:21:29.714Z,4.00
2018-07-05T01:22:29.773Z,4.00
2018-07-05T01:23:29.834Z,4.10
2018-07-05T01:24:29.896Z,3.70
2018-07-05T01:25:29.954Z,3.60
2018-07-05T01:26:30.015Z,4.20
2018-07-05T01:27:30.074Z,4.10
2018-07-05T01:28:30.134Z,4.50
2018-07-05T01:29:30.195Z,4.00
2018-07-05T01:30:30.255Z,3.70
2018-07-05T01:31:30.315Z,4.00
2018-07-05T01:32:30.375Z,4.00
2018-07-05T01:33:30.434Z,4.00
2018-07-05T01:34:30.496Z,4.30
2018-07-05T01:35:30.555Z,4.00
2018-07-05T01:36:30.615Z,4.50
2018-07-05T01:37:30.677Z,4.30
2018-07-05T01:38:30.734Z,4.10
2018-07-05T01:39:30.797Z,4.20
2018-07-05T01:40:30.861Z,4.10
2018-07-05T01:41:30.916Z,4.60
2018-07-05T01:42:30.976Z,3.80
2018-07-05T01:43:31.036Z,3.80
2018-07-05T01:44:31.096Z,4.00
2018-07-05T01:45:31.156Z,3.80
2018-07-05T01:46:31.216Z,4.20
2018-07-05T01:47:31.277Z,4.00
2018-07-05T01:48:31.340Z,4.20
2018-07-05T01:49:31.397Z,4.20
2018-07-05T01:50:31.457Z,4.20
2018-07-05T01:51:31.767Z,4.50
2018-07-05T01:52:31.577Z,5.10
2018-07-05T01:53:31.637Z,4.60
2018-07-05T01:54:31.697Z,5.40
2018-07-05T01:55:31.758Z,4.70
2018-07-05T01:56:31.817Z,4.60
2018-07-05T01:57:31.877Z,4.30
2018-07-05T01:58:31.937Z,4.60
2018-07-05T01:59:31.997Z,4.50
2018-07-05T02:00:32.058Z,5.00
2018-07-05T02:01:32.118Z,4.40
2018-07-05T02:02:32.179Z,4.20
2018-07-05T02:03:32.237Z,4.40
2018-07-05T02:04:32.300Z,4.20
2018-07-05T02:05:32.359Z,4.80
2018-07-05T02:06:32.418Z,4.60
2018-07-05T02:07:32.478Z,4.80
2018-07-05T02:08:32.539Z,4.40
2018-07-05T02:09:32.600Z,4.40
2018-07-05T02:10:32.666Z,4.00
2018-07-05T02:11:32.720Z,4.10
2018-07-05T02:12:32.780Z,4.20
2018-07-05T02:13:32.842Z,4.10
2018-07-05T02:14:32.973Z,4.40
2018-07-05T02:15:32.960Z,4.60
2018-07-05T02:16:33.023Z,4.30
2018-07-05T02:17:33.081Z,4.20
2018-07-05T02:18:33.141Z,4.40
2018-07-05T02:19:33.200Z,4.00
2018-07-05T02:20:33.261Z,3.90
2018-07-05T02:21:33.325Z,4.30
2018-07-05T02:22:33.381Z,4.20
2018-07-05T02:23:33.441Z,3.90
2018-07-05T02:24:33.503Z,4.30
2018-07-05T02:25:33.563Z,3.90
2018-07-05T02:26:33.622Z,4.20
2018-07-05T02:27:33.681Z,4.20
2018-07-05T02:28:33.743Z,4.30
2018-07-05T02:29:33.803Z,4.00
2018-07-05T02:30:33.862Z,4.00
2018-07-05T02:31:33.924Z,4.20
2018-07-05T02:32:33.982Z,4.30
2018-07-05T02:33:34.048Z,4.10
2018-07-05T02:34:34.104Z,4.50
2018-07-05T02:35:34.163Z,4.20
2018-07-05T02:36:34.239Z,4.10
2018-07-05T02:37:34.285Z,4.10
2018-07-05T02:38:34.594Z,4.30
2018-07-05T02:39:34.405Z,4.40
2018-07-05T02:40:34.465Z,4.70
2018-07-05T02:41:34.525Z,4.00
2018-07-05T02:42:34.586Z,4.60
2018-07-05T02:43:34.647Z,4.70
2018-07-05T02:44:34.705Z,4.50
2018-07-05T02:45:34.766Z,4.50
2018-07-05T02:46:34.825Z,5.00
2018-07-05T02:47:34.885Z,4.50
2018-07-05T02:48:34.945Z,4.20
2018-07-05T02:49:35.008Z,4.50
2018-07-05T02:50:35.066Z,4.40
2018-07-05T02:51:35.125Z,4.10
2018-07-05T02:52:35.188Z,4.50
2018-07-05T02:53:35.398Z,4.40
2018-07-05T02:54:35.308Z,4.10
2018-07-05T02:55:35.367Z,4.60
2018-07-05T02:56:35.429Z,4.10
2018-07-05T02:57:35.490Z,4.40
2018-07-05T02:58:35.547Z,4.10
2018-07-05T02:59:35.607Z,4.20
2018-07-05T03:00:35.669Z,5.00
2018-07-05T03:01:35.729Z,4.80
2018-07-05T03:02:35.788Z,4.40
2018-07-05T03:03:35.847Z,4.40
2018-07-05T03:04:35.908Z,4.30
2018-07-05T03:05:35.968Z,4.70
2018-07-05T03:06:36.028Z,4.30
2018-07-05T03:07:36.091Z,4.00
2018-07-05T03:08:36.149Z,3.90
2018-07-05T03:09:36.211Z,4.00
2018-07-05T03:10:36.268Z,4.50
2018-07-05T03:11:36.328Z,4.30
2018-07-05T03:12:36.389Z,4.40
2018-07-05T03:13:36.449Z,4.00
2018-07-05T03:14:36.510Z,4.00
2018-07-05T03:15:36.570Z,3.80
2018-07-05T03:16:36.630Z,4.70
2018-07-05T03:17:36.690Z,4.30
2018-07-05T03:18:36.749Z,4.60
2018-07-05T03:19:37.062Z,4.30
2018-07-05T03:20:36.871Z,4.60
2018-07-05T03:21:36.931Z,4.80
2018-07-05T03:22:36.989Z,4.30
2018-07-05T03:23:37.051Z,4.30
2018-07-05T03:24:37.111Z,5.10
2018-07-05T03:25:37.173Z,5.50
2018-07-05T03:26:37.229Z,5.00
2018-07-05T03:27:37.290Z,4.70
2018-07-05T03:28:37.351Z,5.20
2018-07-05T03:29:37.410Z,4.70
2018-07-05T03:30:37.471Z,4.70
2018-07-05T03:31:37.537Z,4.60
2018-07-05T03:32:37.592Z,4.30
2018-07-05T03:33:37.651Z,4.40
2018-07-05T03:34:37.711Z,4.90
2018-07-05T03:35:37.772Z,4.70
2018-07-05T03:36:37.831Z,4.70
2018-07-05T03:37:37.893Z,4.70
2018-07-05T03:38:37.951Z,4.90
2018-07-05T03:39:38.012Z,4.80
2018-07-05T03:40:38.072Z,4.70
2018-07-05T03:41:38.133Z,4.50
2018-07-05T03:42:38.192Z,4.50
2018-07-05T03:43:38.252Z,5.00
2018-07-05T03:44:38.312Z,4.00
2018-07-05T03:45:38.373Z,4.50
2018-07-05T03:46:38.435Z,4.40
2018-07-05T03:47:38.492Z,4.40
2018-07-05T03:48:38.553Z,4.30
2018-07-05T03:49:38.613Z,4.80
2018-07-05T03:50:38.672Z,4.30
2018-07-05T03:51:39.007Z,4.60
2018-07-05T03:52:38.794Z,4.60
2018-07-05T03:53:38.854Z,5.10
2018-07-05T03:54:38.914Z,5.00
2018-07-05T03:55:38.973Z,4.90
2018-07-05T03:56:39.033Z,4.30
2018-07-05T03:57:39.095Z,4.50
2018-07-05T03:58:39.152Z,4.80
2018-07-05T03:59:39.214Z,4.80
2018-07-05T04:00:39.301Z,4.30
2018-07-05T04:01:39.335Z,4.30
2018-07-05T04:02:39.402Z,4.40
2018-07-05T04:03:39.455Z,3.90
2018-07-05T04:04:39.518Z,4.50
2018-07-05T04:05:39.580Z,4.40
2018-07-05T04:06:39.634Z,4.90
2018-07-05T04:07:39.695Z,4.50
2018-07-05T04:08:39.757Z,4.00
2018-07-05T04:09:39.817Z,4.60
2018-07-05T04:10:39.874Z,4.10
2018-07-05T04:11:39.937Z,4.50
2018-07-05T04:12:39.996Z,4.70
2018-07-05T04:13:40.057Z,4.50
2018-07-05T04:14:40.115Z,4.70
2018-07-05T04:15:40.205Z,5.30
2018-07-05T04:16:40.236Z,4.60
2018-07-05T04:17:40.297Z,4.90
2018-07-05T04:18:40.356Z,4.70
2018-07-05T04:19:40.421Z,4.70
2018-07-05T04:20:40.477Z,4.20
2018-07-05T04:21:40.537Z,4.20
2018-07-05T04:22:40.600Z,4.30
2018-07-05T04:23:40.658Z,4.30
2018-07-05T04:24:40.717Z,4.50
2018-07-05T04:25:40.777Z,4.30
2018-07-05T04:26:40.836Z,4.40
2018-07-05T04:27:40.898Z,4.20
2018-07-05T04:28:40.957Z,4.30
2018-07-05T04:29:41.019Z,4.00
2018-07-05T04:30:41.078Z,4.10
2018-07-05T04:31:41.138Z,4.40
2018-07-05T04:32:41.199Z,4.00
2018-07-05T04:33:41.260Z,4.80
2018-07-05T04:34:41.318Z,4.40
2018-07-05T04:35:41.379Z,4.20
2018-07-05T04:36:41.439Z,4.10
2018-07-05T04:37:41.500Z,4.10
2018-07-05T04:38:41.559Z,4.10
2018-07-05T04:39:41.619Z,4.20
2018-07-05T04:40:41.680Z,4.30
2018-07-05T04:41:41.740Z,4.50
2018-07-05T04:42:42.315Z,4.30
2018-07-05T04:43:41.860Z,4.30
2018-07-05T04:44:41.922Z,3.70
2018-07-05T04:45:41.981Z,4.90
2018-07-05T04:46:42.041Z,4.60
2018-07-05T04:47:42.103Z,5.20
2018-07-05T04:48:42.161Z,4.00
2018-07-05T04:49:42.224Z,4.90
2018-07-05T04:50:42.283Z,4.40
2018-07-05T04:51:42.343Z,4.10
2018-07-05T04:52:42.407Z,4.70
2018-07-05T04:53:42.464Z,4.20
2018-07-05T04:54:42.527Z,4.00
2018-07-05T04:55:42.585Z,3.80
2018-07-05T04:56:42.644Z,3.80
2018-07-05T04:57:42.705Z,4.20
2018-07-05T04:58:42.765Z,3.50
2018-07-05T04:59:42.826Z,3.90
2018-07-05T05:00:42.886Z,4.00
2018-07-05T05:01:42.948Z,3.70
2018-07-05T05:02:43.009Z,4.10
2018-07-05T05:03:43.069Z,3.90
2018-07-05T05:04:43.130Z,4.00
2018-07-05T05:05:43.190Z,4.00
2018-07-05T05:06:43.248Z,3.80
2018-07-05T05:07:43.311Z,4.20
2018-07-05T05:08:43.401Z,4.20
2018-07-05T05:09:43.433Z,3.90
2018-07-05T05:10:43.493Z,4.20
2018-07-05T05:11:43.552Z,4.00
2018-07-05T05:12:43.613Z,4.10
2018-07-05T05:13:43.673Z,4.00
2018-07-05T05:14:43.733Z,4.20
2018-07-05T05:15:43.795Z,4.00
2018-07-05T05:16:43.859Z,4.10
2018-07-05T05:17:43.917Z,4.50
2018-07-05T05:18:43.978Z,5.00
2018-07-05T05:19:44.037Z,4.30
2018-07-05T05:20:44.097Z,4.30
2018-07-05T05:21:44.157Z,4.00
2018-07-05T05:22:44.218Z,3.90
2018-07-05T05:23:44.278Z,4.00
2018-07-05T05:24:44.339Z,4.20
2018-07-05T05:25:44.401Z,3.60
2018-07-05T05:26:44.461Z,3.50
2018-07-05T05:27:44.521Z,4.10
2018-07-05T05:28:44.582Z,4.20
2018-07-05T05:29:44.642Z,4.20
2018-07-05T05:30:44.704Z,3.80
2018-07-05T05:31:44.764Z,4.70
2018-07-05T05:32:44.825Z,4.30
2018-07-05T05:33:44.889Z,4.40
2018-07-05T05:34:44.947Z,4.50
2018-07-05T05:35:45.007Z,4.80
2018-07-05T05:36:45.376Z,3.80
2018-07-05T05:37:45.130Z,3.80
2018-07-05T05:38:45.189Z,3.90
2018-07-05T05:39:45.253Z,3.70
2018-07-05T05:40:45.312Z,3.70
2018-07-05T05:41:45.373Z,4.00
2018-07-05T05:42:45.462Z,4.60
2018-07-05T05:43:45.493Z,4.10
2018-07-05T05:44:45.555Z,4.20
2018-07-05T05:45:45.616Z,4.30
2018-07-05T05:46:46.212Z,4.90
2018-07-05T05:47:45.797Z,4.90
2018-07-05T05:48:45.798Z,4.60
2018-07-05T05:49:45.862Z,5.00
2018-07-05T05:50:45.926Z,4.90
2018-07-05T05:51:45.982Z,5.20
2018-07-05T05:52:46.049Z,4.90
2018-07-05T05:53:46.106Z,4.20
2018-07-05T05:54:46.166Z,4.30
2018-07-05T05:55:46.720Z,4.60
2018-07-05T05:56:46.290Z,4.20
2018-07-05T05:57:46.351Z,4.00
2018-07-05T05:58:46.411Z,4.30
2018-07-05T05:59:46.473Z,3.70
2018-07-05T06:00:46.538Z,3.90
2018-07-05T06:01:46.599Z,3.90
2018-07-05T06:02:46.657Z,4.20
2018-07-05T06:03:46.718Z,4.70
2018-07-05T06:04:46.783Z,4.30
2018-07-05T06:05:46.845Z,4.20
2018-07-05T06:06:46.908Z,3.90
2018-07-05T06:07:46.967Z,4.50
2018-07-05T06:08:47.028Z,4.40
2018-07-05T06:09:47.090Z,4.40
2018-07-05T06:10:47.152Z,4.20
2018-07-05T06:11:47.212Z,4.00
2018-07-05T06:12:47.309Z,4.10
2018-07-05T06:13:47.337Z,4.00
2018-07-05T06:14:47.399Z,4.10
2018-07-05T06:15:47.460Z,3.80
2018-07-05T06:16:47.674Z,4.10
2018-07-05T06:17:47.585Z,3.80
2018-07-05T06:18:47.650Z,3.90
2018-07-05T06:19:47.709Z,4.40
2018-07-05T06:20:47.771Z,3.50
2018-07-05T06:21:47.834Z,3.90
2018-07-05T06:22:47.896Z,3.90
2018-07-05T06:23:47.957Z,3.80
2018-07-05T06:24:48.021Z,3.90
2018-07-05T06:25:48.083Z,4.10
2018-07-05T06:26:48.144Z,3.90
2018-07-05T06:27:48.207Z,3.90
2018-07-05T06:28:48.269Z,3.90
2018-07-05T06:29:48.332Z,4.20
2018-07-05T06:30:48.394Z,4.00
2018-07-05T06:31:48.458Z,3.90
2018-07-05T06:32:48.519Z,4.30
2018-07-05T06:33:48.582Z,4.20
2018-07-05T06:34:48.645Z,4.10
2018-07-05T06:35:48.706Z,4.30
2018-07-05T06:36:48.771Z,4.00
2018-07-05T06:37:48.839Z,3.90
2018-07-05T06:38:48.893Z,3.80
2018-07-05T06:39:48.958Z,3.60
2018-07-05T06:40:49.019Z,3.80
2018-07-05T06:41:49.123Z,3.40
2018-07-05T06:42:49.156Z,3.80
2018-07-05T06:43:49.210Z,3.50
2018-07-05T06:44:49.271Z,3.30
2018-07-05T06:45:49.336Z,3.50
2018-07-05T06:46:49.399Z,3.40
2018-07-05T06:47:49.461Z,3.50
2018-07-05T06:48:49.525Z,3.50
2018-07-05T06:49:49.591Z,3.30
2018-07-05T06:50:49.649Z,3.30
2018-07-05T06:51:49.712Z,3.60
2018-07-05T06:52:49.775Z,3.60
2018-07-05T06:53:49.839Z,3.10
2018-07-05T06:54:49.901Z,3.40
2018-07-05T06:55:49.964Z,3.80
2018-07-05T06:56:50.033Z,3.30
2018-07-05T06:57:50.091Z,3.20
2018-07-05T06:58:50.405Z,3.70
2018-07-05T06:59:50.542Z,3.80
2018-07-05T07:00:50.280Z,3.80
2018-07-05T07:01:50.345Z,4.20
2018-07-05T07:02:50.407Z,3.70
2018-07-05T07:03:50.469Z,3.50
2018-07-05T07:04:50.536Z,3.70
2018-07-05T07:05:50.597Z,3.60
2018-07-05T07:06:50.659Z,3.40
2018-07-05T07:07:50.723Z,3.60
2018-07-05T07:08:50.788Z,3.30
2018-07-05T07:09:50.850Z,3.70
2018-07-05T07:10:50.913Z,3.60
2018-07-05T07:11:50.978Z,3.20
2018-07-05T07:12:51.042Z,3.30
2018-07-05T07:13:51.107Z,3.30
2018-07-05T07:14:51.168Z,3.50
2018-07-05T07:15:51.233Z,3.80
2018-07-05T07:16:51.296Z,3.30
2018-07-05T07:17:51.362Z,3.90
2018-07-05T07:18:51.424Z,3.50
2018-07-05T07:19:51.500Z,3.60
2018-07-05T07:20:51.553Z,3.70
2018-07-05T07:21:51.618Z,3.60
2018-07-05T07:22:51.679Z,3.60
2018-07-05T07:23:51.754Z,3.40
2018-07-05T07:24:51.808Z,3.30
2018-07-05T07:25:51.873Z,3.30
2018-07-05T07:26:51.937Z,3.50
2018-07-05T07:27:52.002Z,3.60
2018-07-05T07:28:52.065Z,3.40
2018-07-05T07:29:52.132Z,3.30
2018-07-05T07:30:52.194Z,3.20
2018-07-05T07:31:52.360Z,3.50
2018-07-05T07:32:52.325Z,3.20
2018-07-05T07:33:55.011Z,3.70
2018-07-05T07:34:52.458Z,3.40
2018-07-05T07:35:52.516Z,3.50
2018-07-05T07:36:52.588Z,3.50
2018-07-05T07:37:52.647Z,3.40
2018-07-05T07:38:52.711Z,3.70
2018-07-05T07:39:52.774Z,3.50
2018-07-05T07:40:53.089Z,3.60
2018-07-05T07:41:52.904Z,3.40
2018-07-05T07:42:52.968Z,3.60
2018-07-05T07:43:53.033Z,3.40
2018-07-05T07:44:53.097Z,3.70
2018-07-05T07:45:53.167Z,3.30
2018-07-05T07:46:53.227Z,3.30
2018-07-05T07:47:53.290Z,3.50
2018-07-05T07:48:53.356Z,3.30
2018-07-05T07:49:53.420Z,3.30
2018-07-05T07:50:53.484Z,3.40
2018-07-05T07:51:53.550Z,3.70
2018-07-05T07:52:53.615Z,3.80
2018-07-05T07:53:53.679Z,3.10
2018-07-05T07:54:53.743Z,3.60
2018-07-05T07:55:53.808Z,3.60
2018-07-05T07:56:53.873Z,3.50
2018-07-05T07:57:53.938Z,3.80
2018-07-05T07:58:54.002Z,3.40
2018-07-05T07:59:54.068Z,3.40
2018-07-05T08:00:54.139Z,3.70
2018-07-05T08:01:54.198Z,4.20
2018-07-05T08:02:54.261Z,3.80
2018-07-05T08:03:54.328Z,4.10
2018-07-05T08:04:54.391Z,3.90
2018-07-05T08:05:54.457Z,4.20
2018-07-05T08:06:54.521Z,4.30
2018-07-05T08:07:54.653Z,5.00
2018-07-05T08:08:54.651Z,4.20
2018-07-05T08:09:54.717Z,4.20
2018-07-05T08:10:54.782Z,4.10
2018-07-05T08:11:54.847Z,4.30
2018-07-05T08:12:54.911Z,4.00
2018-07-05T08:13:54.977Z,3.80
2018-07-05T08:14:55.043Z,3.90
2018-07-05T08:15:55.416Z,4.20
2018-07-05T08:16:55.173Z,3.90
2018-07-05T08:17:55.239Z,4.00
2018-07-05T08:18:55.303Z,4.20
2018-07-05T08:19:55.369Z,4.00
2018-07-05T08:20:55.435Z,4.10
2018-07-05T08:21:55.502Z,4.10
2018-07-05T08:22:55.566Z,4.30
2018-07-05T08:23:55.632Z,3.90
2018-07-05T08:24:55.700Z,4.40
2018-07-05T08:25:55.765Z,4.40
2018-07-05T08:26:55.828Z,4.50
2018-07-05T08:27:55.894Z,4.60
2018-07-05T08:28:55.960Z,4.40
2018-07-05T08:29:56.026Z,4.60
2018-07-05T08:30:56.091Z,4.50
2018-07-05T08:31:56.157Z,4.20
2018-07-05T08:32:56.224Z,4.30
2018-07-05T08:33:56.289Z,4.10
2018-07-05T08:34:56.355Z,4.10
2018-07-05T08:35:56.421Z,3.80
2018-07-05T08:36:56.488Z,4.20
2018-07-05T08:37:56.559Z,4.20
2018-07-05T08:38:56.617Z,4.30
2018-07-05T08:39:56.684Z,3.80
2018-07-05T08:40:56.750Z,4.00
2018-07-05T08:41:57.482Z,4.20
2018-07-05T08:42:56.882Z,4.30
2018-07-05T08:43:56.948Z,3.90
2018-07-05T08:44:57.061Z,3.80
2018-07-05T08:45:57.082Z,3.80
2018-07-05T08:46:57.146Z,3.80
2018-07-05T08:47:57.214Z,4.00
2018-07-05T08:48:57.280Z,4.10
2018-07-05T08:49:57.348Z,3.90
2018-07-05T08:50:57.411Z,4.10
2018-07-05T08:51:57.479Z,4.00
2018-07-05T08:52:57.549Z,3.90
2018-07-05T08:53:57.613Z,4.40
2018-07-05T08:54:57.678Z,4.30
2018-07-05T08:55:57.744Z,3.70
2018-07-05T08:56:57.813Z,3.80
2018-07-05T08:57:57.878Z,4.20
2018-07-05T08:58:57.944Z,4.30
2018-07-05T08:59:58.011Z,4.30
2018-07-05T09:00:58.078Z,4.00
2018-07-05T09:01:58.147Z,4.10
2018-07-05T09:02:58.210Z,4.00
2018-07-05T09:03:58.278Z,3.70
2018-07-05T09:04:58.345Z,4.00
2018-07-05T09:05:58.411Z,4.10
2018-07-05T09:06:58.478Z,4.40
2018-07-05T09:07:58.545Z,4.20
2018-07-05T09:08:58.620Z,3.90
2018-07-05T09:09:58.680Z,4.40
2018-07-05T09:10:58.744Z,4.50
2018-07-05T09:11:58.837Z,4.10
2018-07-05T09:12:58.879Z,3.90
2018-07-05T09:13:58.945Z,4.30
2018-07-05T09:14:59.013Z,4.00
2018-07-05T09:15:59.080Z,3.90
2018-07-05T09:16:59.153Z,4.20
2018-07-05T09:17:59.294Z,4.40
2018-07-05T09:18:59.282Z,4.10
2018-07-05T09:19:59.349Z,4.50
2018-07-05T09:20:59.417Z,4.40
2018-07-05T09:21:59.484Z,4.20
2018-07-05T09:22:59.549Z,4.30
2018-07-05T09:23:59.618Z,4.50
2018-07-05T09:24:59.687Z,4.50
2018-07-05T09:25:59.752Z,4.80
2018-07-05T09:26:59.819Z,4.50
2018-07-05T09:27:59.887Z,4.80
2018-07-05T09:28:59.953Z,4.40
2018-07-05T09:30:00.077Z,4.20
2018-07-05T09:31:00.085Z,4.20
2018-07-05T09:32:00.153Z,4.50
2018-07-05T09:33:00.221Z,4.10
2018-07-05T09:34:00.287Z,4.30
2018-07-05T09:35:00.355Z,4.90
2018-07-05T09:36:00.422Z,4.50
2018-07-05T09:37:00.531Z,4.80
2018-07-05T09:38:00.555Z,4.30
2018-07-05T09:39:00.622Z,4.90
2018-07-05T09:40:00.689Z,4.70
2018-07-05T09:41:00.758Z,4.50
2018-07-05T09:42:00.825Z,4.40
2018-07-05T09:43:00.892Z,4.20
2018-07-05T09:44:00.966Z,4.30
2018-07-05T09:45:01.176Z,4.40
2018-07-05T09:46:01.093Z,4.50
2018-07-05T09:47:01.219Z,4.50
2018-07-05T09:48:01.227Z,4.20
2018-07-05T09:49:01.297Z,4.30
2018-07-05T09:50:01.368Z,4.70
2018-07-05T09:51:01.429Z,4.50
2018-07-05T09:52:01.496Z,4.10
2018-07-05T09:53:01.564Z,4.20
2018-07-05T09:54:01.632Z,4.30
2018-07-05T09:55:01.701Z,4.20
2018-07-05T09:56:01.766Z,4.20
2018-07-05T09:57:01.834Z,4.20
2018-07-05T09:58:01.918Z,4.30
2018-07-05T09:59:01.970Z,4.70
2018-07-05T10:00:02.039Z,4.80
2018-07-05T10:01:02.106Z,4.50
2018-07-05T10:02:02.177Z,3.90
2018-07-05T10:03:02.242Z,4.70
2018-07-05T10:04:02.312Z,4.50
2018-07-05T10:05:02.378Z,4.30
2018-07-05T10:06:02.447Z,4.00
2018-07-05T10:07:02.514Z,4.50
2018-07-05T10:08:02.582Z,4.50
2018-07-05T10:09:02.653Z,4.20
2018-07-05T10:10:02.749Z,4.00
2018-07-05T10:11:02.788Z,4.40
2018-07-05T10:12:02.860Z,4.10
2018-07-05T10:13:03.011Z,4.10
2018-07-05T10:14:02.990Z,4.00
2018-07-05T10:15:03.059Z,4.60
2018-07-05T10:16:03.130Z,4.20
2018-07-05T10:17:03.194Z,4.50
2018-07-05T10:18:03.267Z,4.00
2018-07-05T10:19:03.334Z,4.30
2018-07-05T10:20:03.397Z,4.60
2018-07-05T10:21:03.470Z,4.20
2018-07-05T10:22:03.533Z,4.60
2018-07-05T10:23:03.599Z,4.60
2018-07-05T10:24:03.667Z,4.10
2018-07-05T10:25:03.734Z,4.20
2018-07-05T10:26:03.802Z,4.40
2018-07-05T10:27:03.947Z,4.30
2018-07-05T10:28:03.936Z,4.50
2018-07-05T10:29:04.055Z,4.20
2018-07-05T10:30:04.093Z,4.70
2018-07-05T10:31:04.139Z,4.70
2018-07-05T10:32:04.206Z,4.50
2018-07-05T10:33:04.275Z,4.70
2018-07-05T10:34:04.343Z,4.50
2018-07-05T10:35:04.411Z,4.80
2018-07-05T10:36:04.481Z,4.30
2018-07-05T10:37:04.547Z,4.70
2018-07-05T10:38:04.613Z,4.90
2018-07-05T10:39:04.681Z,4.90
2018-07-05T10:40:04.750Z,4.70
2018-07-05T10:41:04.818Z,4.90
2018-07-05T10:42:04.887Z,5.10
2018-07-05T10:43:04.956Z,4.80
2018-07-05T10:44:05.020Z,5.00
2018-07-05T10:45:05.090Z,5.00
2018-07-05T10:46:05.169Z,5.60
2018-07-05T10:47:05.222Z,5.10
2018-07-05T10:48:05.291Z,5.10
2018-07-05T10:49:05.361Z,5.00
2018-07-05T10:50:05.434Z,5.00
2018-07-05T10:51:05.496Z,4.70
2018-07-05T10:52:05.564Z,4.50
2018-07-05T10:53:05.632Z,4.50
2018-07-05T10:54:05.700Z,4.50
2018-07-05T10:55:05.769Z,5.10
2018-07-05T10:56:05.837Z,4.60
2018-07-05T10:57:05.906Z,4.90
2018-07-05T10:58:05.975Z,4.90
2018-07-05T10:59:06.043Z,4.80
2018-07-05T11:00:06.115Z,5.30
2018-07-05T11:01:06.375Z,4.50
2018-07-05T11:02:06.251Z,4.50
2018-07-05T11:03:06.317Z,4.70
2018-07-05T11:04:06.387Z,4.40
2018-07-05T11:05:06.456Z,4.40
2018-07-05T11:06:06.527Z,4.00
2018-07-05T11:07:06.594Z,4.10
2018-07-05T11:08:06.665Z,4.20
2018-07-05T11:09:06.734Z,4.30
2018-07-05T11:10:06.800Z,3.90
2018-07-05T11:11:06.868Z,3.70
2018-07-05T11:12:06.938Z,4.00
2018-07-05T11:13:07.006Z,4.30
2018-07-05T11:14:07.077Z,4.40
2018-07-05T11:15:07.143Z,4.20
2018-07-05T11:16:07.214Z,4.10
2018-07-05T11:17:07.281Z,4.20
2018-07-05T11:18:07.350Z,4.00
2018-07-05T11:19:07.419Z,4.00
2018-07-05T11:20:07.491Z,4.20
2018-07-05T11:21:07.558Z,3.80
2018-07-05T11:22:07.628Z,4.20
2018-07-05T11:23:07.695Z,3.80
2018-07-05T11:24:07.766Z,3.80
2018-07-05T11:25:07.835Z,3.90
2018-07-05T11:26:07.906Z,3.50
2018-07-05T11:27:07.975Z,3.70
2018-07-05T11:28:08.044Z,3.80
2018-07-05T11:29:08.112Z,3.80
2018-07-05T11:30:08.186Z,3.50
2018-07-05T11:31:08.255Z,3.40
2018-07-05T11:32:08.321Z,4.10
2018-07-05T11:33:08.391Z,3.80
2018-07-05T11:34:08.461Z,3.80
2018-07-05T11:35:08.529Z,3.50
2018-07-05T11:36:08.600Z,3.60
2018-07-05T11:37:08.674Z,3.50
2018-07-05T11:38:08.742Z,4.00
2018-07-05T11:39:08.810Z,4.00
2018-07-05T11:40:08.877Z,3.80
2018-07-05T11:41:08.948Z,4.20
2018-07-05T11:42:09.017Z,3.60
2018-07-05T11:43:09.086Z,3.70
2018-07-05T11:44:09.156Z,3.60
2018-07-05T11:45:09.227Z,3.80
2018-07-05T11:46:09.298Z,4.30
2018-07-05T11:47:09.367Z,4.10
2018-07-05T11:48:09.436Z,4.00
2018-07-05T11:49:09.506Z,3.80
2018-07-05T11:50:09.577Z,4.00
2018-07-05T11:51:09.645Z,4.50
2018-07-05T11:52:09.730Z,3.80
2018-07-05T11:53:09.786Z,4.40
2018-07-05T11:54:09.856Z,3.80
2018-07-05T11:55:09.925Z,4.10
2018-07-05T11:56:09.996Z,4.40
2018-07-05T11:57:10.066Z,4.10
2018-07-05T11:58:10.135Z,4.60
2018-07-05T11:59:10.205Z,4.30
2018-07-05T12:00:10.274Z,4.00
2018-07-05T12:01:10.344Z,4.00
2018-07-05T12:02:10.414Z,5.00
2018-07-05T12:03:10.484Z,4.30
2018-07-05T12:04:10.672Z,4.50
2018-07-05T12:05:10.624Z,4.50
2018-07-05T12:06:11.096Z,4.70
2018-07-05T12:07:10.765Z,4.70
2018-07-05T12:08:10.830Z,4.80
2018-07-05T12:09:10.900Z,4.80
2018-07-05T12:10:10.968Z,4.80
2018-07-05T12:11:11.037Z,5.00
2018-07-05T12:12:11.109Z,5.00
2018-07-05T12:13:11.177Z,5.10
2018-07-05T12:14:11.247Z,5.30
2018-07-05T12:15:11.313Z,5.10
2018-07-05T12:16:11.384Z,5.10
2018-07-05T12:17:11.452Z,5.10
2018-07-05T12:18:11.520Z,5.20
2018-07-05T12:19:11.592Z,4.90
2018-07-05T12:20:11.657Z,4.60
2018-07-05T12:21:11.725Z,5.50
2018-07-05T12:22:11.796Z,5.70
2018-07-05T12:23:11.861Z,5.20
2018-07-05T12:24:11.938Z,5.40
2018-07-05T12:25:12.000Z,5.40
2018-07-05T12:26:12.068Z,5.10
2018-07-05T12:27:12.135Z,5.30
2018-07-05T12:28:12.203Z,5.40
2018-07-05T12:29:12.292Z,5.00
2018-07-05T12:30:12.343Z,5.30
2018-07-05T12:31:12.408Z,5.10
2018-07-05T12:32:12.476Z,5.10
2018-07-05T12:33:12.545Z,5.00
2018-07-05T12:34:12.617Z,5.30
2018-07-05T12:35:12.681Z,5.10
2018-07-05T12:36:12.749Z,5.10
2018-07-05T12:37:12.817Z,5.00
2018-07-05T12:38:12.953Z,4.90
2018-07-05T12:39:12.954Z,5.00
2018-07-05T12:40:13.067Z,4.80
2018-07-05T12:41:13.090Z,5.00
2018-07-05T12:42:13.159Z,4.80
2018-07-05T12:43:13.228Z,5.10
2018-07-05T12:44:13.298Z,5.00
2018-07-05T12:45:13.366Z,4.70
2018-07-05T12:46:13.434Z,4.80
2018-07-05T12:47:13.504Z,4.50
2018-07-05T12:48:13.572Z,4.60
2018-07-05T12:49:13.640Z,4.50
2018-07-05T12:50:13.710Z,4.70
2018-07-05T12:51:13.779Z,4.90
2018-07-05T12:52:13.850Z,4.40
2018-07-05T12:53:13.917Z,4.50
2018-07-05T12:54:13.987Z,4.50
2018-07-05T12:55:14.065Z,5.10
2018-07-05T12:56:14.126Z,4.40
2018-07-05T12:57:14.197Z,4.30
2018-07-05T12:58:14.270Z,4.30
2018-07-05T12:59:14.338Z,4.10
2018-07-05T13:00:14.406Z,3.80
2018-07-05T13:01:14.477Z,3.80
2018-07-05T13:02:14.546Z,4.20
2018-07-05T13:03:14.617Z,4.20
2018-07-05T13:04:14.804Z,4.20
2018-07-05T13:05:14.757Z,3.80
2018-07-05T13:06:14.828Z,3.40
2018-07-05T13:07:14.899Z,3.50
2018-07-05T13:08:14.972Z,3.60
2018-07-05T13:09:15.042Z,3.60
2018-07-05T13:10:15.112Z,3.50
2018-07-05T13:11:15.183Z,3.40
2018-07-05T13:12:15.254Z,3.60
2018-07-05T13:13:15.326Z,3.70
2018-07-05T13:14:15.398Z,3.80
2018-07-05T13:15:15.468Z,3.70
2018-07-05T13:16:15.541Z,3.40
2018-07-05T13:17:15.612Z,3.10
2018-07-05T13:18:15.775Z,3.70
2018-07-05T13:19:15.754Z,3.40